createdAt,value
2019-02-27T00:01:20.987Z,98753.19
2019-02-27T00:06:22.741Z,98757.74
2019-02-27T00:11:24.300Z,98751.03
2019-02-27T00:16:26.000Z,98751.59
2019-02-27T00:21:27.711Z,98738.97
2019-02-27T00:26:29.329Z,98743.50
2019-02-27T00:31:31.086Z,98734.03
2019-02-27T00:36:32.739Z,98725.77
2019-02-27T00:41:34.402Z,98737.78
2019-02-27T00:46:35.955Z,98737.00
2019-02-27T00:51:37.545Z,98739.27
2019-02-27T00:56:39.093Z,98733.13
2019-02-27T01:01:40.648Z,98737.33
2019-02-27T01:06:42.218Z,98731.19
2019-02-27T01:11:43.763Z,98730.43
2019-02-27T01:16:47.660Z,98727.98
2019-02-27T01:21:48.824Z,98730.64
2019-02-27T01:26:50.449Z,98723.65
2019-02-27T01:31:52.005Z,98720.27
2019-02-27T01:36:54.899Z,98713.49
2019-02-27T01:41:57.932Z,98714.11
2019-02-27T01:47:02.387Z,98695.59
2019-02-27T01:52:03.674Z,98692.97
2019-02-27T01:57:05.228Z,98688.63
2019-02-27T02:02:06.811Z,98686.97
2019-02-27T02:07:08.764Z,98687.23
2019-02-27T02:12:15.309Z,98678.06
2019-02-27T02:18:02.136Z,98663.28
2019-02-27T02:23:41.744Z,98652.80
2019-02-27T02:29:05.271Z,98647.64
2019-02-27T02:34:30.496Z,98645.27
2019-02-27T02:39:56.592Z,98644.56
2019-02-27T02:45:18.507Z,98659.47
2019-02-27T02:50:43.944Z,98660.84
2019-02-27T02:56:12.397Z,98654.41
2019-02-27T03:01:22.503Z,98655.48
2019-02-27T03:06:41.501Z,98659.41
2019-02-27T03:12:29.896Z,98663.66
2019-02-27T03:18:08.884Z,98656.12
2019-02-27T03:23:50.996Z,98656.47
2019-02-27T03:29:03.801Z,98653.09
2019-02-27T03:34:50.730Z,98647.27
2019-02-27T03:39:59.178Z,98658.75
2019-02-27T03:45:31.099Z,98667.16
2019-02-27T03:50:49.532Z,98667.45
2019-02-27T03:56:21.097Z,98669.83
2019-02-27T04:01:46.219Z,98679.40
2019-02-27T04:07:23.697Z,98663.88
2019-02-27T04:12:25.292Z,98674.82
2019-02-27T04:17:26.673Z,98674.82
2019-02-27T04:22:28.261Z,98677.49
2019-02-27T04:27:29.810Z,98671.48
2019-02-27T04:32:31.415Z,98665.52
2019-02-27T04:37:32.969Z,98673.02
2019-02-27T04:42:34.515Z,98673.91
2019-02-27T04:47:36.068Z,98675.17
2019-02-27T04:52:37.851Z,98677.02
2019-02-27T04:57:39.403Z,98681.90
2019-02-27T05:02:41.063Z,98683.67
2019-02-27T05:07:42.610Z,98692.17
2019-02-27T05:12:47.847Z,98689.36
2019-02-27T05:17:47.691Z,98690.25
2019-02-27T05:22:49.242Z,98697.62
2019-02-27T05:27:50.792Z,98699.41
2019-02-27T05:32:52.436Z,98700.41
2019-02-27T05:37:54.036Z,98698.92
2019-02-27T05:42:55.588Z,98695.00
2019-02-27T05:47:57.145Z,98688.44
2019-02-27T05:52:58.743Z,98697.18
2019-02-27T05:58:00.295Z,98702.83
2019-02-27T06:03:01.958Z,98715.00
2019-02-27T06:08:03.656Z,98727.38
2019-02-27T06:13:05.265Z,98728.41
2019-02-27T06:18:06.861Z,98729.44
2019-02-27T06:23:08.417Z,98735.16
2019-02-27T06:28:09.963Z,98731.77
2019-02-27T06:33:12.382Z,98729.61
2019-02-27T06:38:13.952Z,98726.39
2019-02-27T06:43:15.644Z,98728.04
2019-02-27T06:48:17.239Z,98727.84
2019-02-27T06:53:18.817Z,98733.99
2019-02-27T06:58:20.405Z,98736.39
2019-02-27T07:03:21.965Z,98740.16
2019-02-27T07:08:23.542Z,98737.00
2019-02-27T07:13:26.792Z,98736.42
2019-02-27T07:18:28.604Z,98738.30
2019-02-27T07:23:30.216Z,98748.02
2019-02-27T07:28:31.845Z,98750.56
2019-02-27T07:33:33.460Z,98749.92
2019-02-27T07:38:35.016Z,98749.94
2019-02-27T07:43:36.575Z,98749.94
2019-02-27T07:48:38.128Z,98756.05
2019-02-27T07:53:39.675Z,98757.31
2019-02-27T07:58:41.276Z,98753.09
2019-02-27T08:03:45.589Z,98757.92
2019-02-27T08:08:46.303Z,98761.54
2019-02-27T08:13:47.884Z,98759.34
2019-02-27T08:18:49.477Z,98761.72
2019-02-27T08:23:51.022Z,98761.84
2019-02-27T08:28:52.612Z,98760.25
2019-02-27T08:33:54.237Z,98767.34
2019-02-27T08:38:55.848Z,98768.31
2019-02-27T08:43:57.454Z,98764.38
2019-02-27T08:49:01.708Z,98762.47
2019-02-27T08:54:03.468Z,98758.81
2019-02-27T08:59:06.016Z,98748.31
2019-02-27T09:04:11.558Z,98750.62
2019-02-27T09:09:11.323Z,98756.14
2019-02-27T09:14:12.930Z,98759.19
2019-02-27T09:24:16.128Z,98747.39
2019-02-27T09:29:18.626Z,98758.38
2019-02-27T09:34:20.898Z,98751.75
2019-02-27T09:39:22.636Z,98764.11
2019-02-27T09:44:24.463Z,98760.21
2019-02-27T09:49:26.014Z,98758.83
2019-02-27T09:54:27.559Z,98756.66
2019-02-27T09:59:30.320Z,98756.73
2019-02-27T10:04:31.876Z,98760.87
2019-02-27T10:09:34.871Z,98761.70
2019-02-27T10:14:37.030Z,98760.20
2019-02-27T10:19:38.616Z,98757.00
2019-02-27T10:24:40.177Z,98753.97
2019-02-27T10:29:41.724Z,98744.73
2019-02-27T10:34:43.368Z,98740.09
2019-02-27T10:39:44.930Z,98739.22
2019-02-27T10:44:46.731Z,98741.25
2019-02-27T10:49:48.548Z,98738.63
2019-02-27T10:54:50.104Z,98730.57
2019-02-27T10:59:51.644Z,98725.47
2019-02-27T11:04:53.237Z,98725.71
2019-02-27T11:09:54.881Z,98711.80
2019-02-27T11:14:56.435Z,98703.33
2019-02-27T11:19:58.139Z,98691.16
2019-02-27T11:24:59.697Z,98680.05
2019-02-27T11:30:03.068Z,98679.14
2019-02-27T11:35:06.327Z,98675.92
2019-02-27T11:40:20.780Z,98666.91
2019-02-27T11:45:24.636Z,98653.88
2019-02-27T11:50:25.936Z,98651.48
2019-02-27T11:55:27.495Z,98643.41
2019-02-27T12:00:29.889Z,98632.65
2019-02-27T12:05:34.270Z,98630.10
2019-02-27T12:10:34.998Z,98613.55
2019-02-27T12:15:36.648Z,98602.67
2019-02-27T12:20:38.240Z,98594.81
2019-02-27T12:25:39.833Z,98597.02
2019-02-27T12:30:42.529Z,98585.48
2019-02-27T12:35:44.994Z,98581.22
2019-02-27T12:40:46.676Z,98582.27
2019-02-27T12:45:48.235Z,98580.98
2019-02-27T12:50:49.828Z,98573.15
2019-02-27T12:55:51.383Z,98568.14
2019-02-27T13:00:52.941Z,98564.31
2019-02-27T13:05:54.564Z,98550.36
2019-02-27T13:10:56.116Z,98538.70
2019-02-27T13:15:57.680Z,98532.91
2019-02-27T13:20:59.279Z,98529.58
2019-02-27T13:26:01.150Z,98523.39
2019-02-27T13:31:03.186Z,98503.94
2019-02-27T13:36:05.093Z,98493.95
2019-02-27T13:41:07.769Z,98490.47
2019-02-27T13:46:10.143Z,98472.70
2019-02-27T13:51:12.099Z,98462.84
2019-02-27T13:56:16.070Z,98460.35
2019-02-27T14:01:17.112Z,98458.07
2019-02-27T14:06:18.778Z,98456.34
2019-02-27T14:11:20.335Z,98451.88
2019-02-27T14:16:22.260Z,98450.72
2019-02-27T14:21:23.928Z,98442.52
2019-02-27T14:26:25.482Z,98432.38
2019-02-27T14:31:27.273Z,98413.89
2019-02-27T14:36:28.903Z,98411.06
2019-02-27T14:41:30.487Z,98397.12
2019-02-27T14:46:32.187Z,98387.25
2019-02-27T14:51:33.836Z,98378.83
2019-02-27T14:56:35.589Z,98375.83
2019-02-27T15:01:37.142Z,98357.34
2019-02-27T15:06:39.098Z,98350.80
2019-02-27T15:11:40.650Z,98334.98
2019-02-27T15:16:42.265Z,98323.46
2019-02-27T15:21:46.544Z,98304.70
2019-02-27T15:26:50.374Z,98293.95
2019-02-27T15:31:52.260Z,98289.50
2019-02-27T15:36:54.621Z,98282.77
2019-02-27T15:41:56.581Z,98269.88
2019-02-27T15:46:58.270Z,98260.37
2019-02-27T15:52:00.029Z,98243.27
2019-02-27T15:57:01.669Z,98244.06
2019-02-27T16:02:03.670Z,98233.31
2019-02-27T16:07:05.416Z,98221.98
2019-02-27T16:12:07.063Z,98227.53
2019-02-27T16:17:08.619Z,98231.23
2019-02-27T16:22:10.323Z,98226.32
2019-02-27T16:27:11.963Z,98221.82
2019-02-27T16:32:14.043Z,98214.02
2019-02-27T16:37:21.890Z,98207.20
2019-02-27T16:42:19.230Z,98212.09
2019-02-27T16:47:23.573Z,98196.24
2019-02-27T16:52:24.249Z,98184.98
2019-02-27T16:57:25.808Z,98179.47
2019-02-27T17:02:27.347Z,98163.45
2019-02-27T17:07:29.143Z,98151.25
2019-02-27T17:12:30.701Z,98157.02
2019-02-27T17:17:32.363Z,98155.44
2019-02-27T17:22:34.001Z,98142.37
2019-02-27T17:27:35.624Z,98142.84
2019-02-27T17:32:37.216Z,98133.15
2019-02-27T17:37:39.983Z,98129.39
2019-02-27T17:42:42.289Z,98112.48
2019-02-27T17:47:43.979Z,98103.42
2019-02-27T17:52:48.669Z,98089.70
2019-02-27T17:57:49.349Z,98094.42
2019-02-27T18:02:52.036Z,98085.21
2019-02-27T18:07:53.839Z,98074.06
2019-02-27T18:12:55.397Z,98063.23
2019-02-27T18:17:58.040Z,98068.05
2019-02-27T18:22:59.690Z,98058.72
2019-02-27T18:28:01.421Z,98049.37
2019-02-27T18:33:03.281Z,98040.52
2019-02-27T18:38:05.089Z,98035.84
2019-02-27T18:43:06.686Z,98023.27
2019-02-27T18:48:10.053Z,98013.38
2019-02-27T18:53:13.351Z,98024.48
2019-02-27T18:58:18.120Z,98013.27
2019-02-27T19:03:18.709Z,98014.00
2019-02-27T19:08:20.275Z,98001.47
2019-02-27T19:13:21.880Z,97985.19
2019-02-27T19:18:23.783Z,97973.55
2019-02-27T19:23:26.592Z,97957.34
2019-02-27T19:28:28.253Z,97961.20
2019-02-27T19:33:32.550Z,97955.36
2019-02-27T19:38:33.762Z,97956.09
2019-02-27T19:43:35.337Z,97939.36
2019-02-27T19:48:37.046Z,97925.20
2019-02-27T19:53:41.265Z,97907.53
2019-02-27T19:58:43.466Z,97906.28
2019-02-27T20:03:45.135Z,97903.65
2019-02-27T20:08:46.691Z,97902.33
2019-02-27T20:13:48.245Z,97901.69
2019-02-27T20:18:54.906Z,97896.77
2019-02-27T20:23:53.474Z,97879.34
2019-02-27T20:28:55.024Z,97883.40
2019-02-27T20:33:56.599Z,97870.46
2019-02-27T20:38:58.643Z,97871.53
2019-02-27T20:44:02.991Z,97868.03
2019-02-27T20:49:03.833Z,97871.61
2019-02-27T20:54:06.887Z,97857.48
2019-02-27T20:59:08.683Z,97856.55
2019-02-27T21:04:12.157Z,97847.45
2019-02-27T21:09:13.977Z,97846.41
2019-02-27T21:14:17.042Z,97845.09
2019-02-27T21:19:19.899Z,97837.93
2019-02-27T21:24:23.392Z,97830.47
2019-02-27T21:29:24.954Z,97831.23
2019-02-27T21:34:26.706Z,97821.73
2019-02-27T21:39:28.641Z,97810.51
2019-02-27T21:44:32.255Z,97801.89
2019-02-27T21:49:34.046Z,97790.52
2019-02-27T21:54:39.341Z,97792.66
2019-02-27T21:59:40.624Z,97777.11
2019-02-27T22:04:44.100Z,97770.89
2019-02-27T22:09:45.787Z,97774.09
2019-02-27T22:14:48.608Z,97767.39
2019-02-27T22:19:53.827Z,97758.43
2019-02-27T22:24:55.614Z,97746.40
2019-02-27T22:30:00.525Z,97743.55
2019-02-27T22:35:04.121Z,97728.88
2019-02-27T22:40:11.243Z,97723.22
2019-02-27T22:45:16.127Z,97715.69
2019-02-27T22:50:20.574Z,97705.89
2019-02-27T22:55:22.164Z,97700.61
2019-02-27T23:00:52.022Z,97703.52
2019-02-27T23:05:55.800Z,97691.00
2019-02-27T23:10:57.973Z,97683.09
2019-02-27T23:15:59.635Z,97680.83
2019-02-27T23:21:01.405Z,97679.70
2019-02-27T23:26:04.333Z,97673.97
2019-02-27T23:31:05.875Z,97668.80
2019-02-27T23:36:07.430Z,97665.45
2019-02-27T23:41:09.087Z,97650.41
2019-02-27T23:46:10.733Z,97640.80
2019-02-27T23:51:15.790Z,97629.42
2019-02-27T23:56:19.284Z,97615.59
